createdAt,value
2023-01-02T00:02:04.549Z,59360.63
2023-01-02T00:04:30.903Z,59360.63
2023-01-02T00:06:57.330Z,59360.63
2023-01-02T00:09:25.305Z,59360.63
2023-01-02T00:11:51.632Z,59360.63
2023-01-02T00:14:17.963Z,59360.63
2023-01-02T00:16:44.364Z,59360.63
2023-01-02T00:19:10.758Z,59360.63
2023-01-02T00:21:37.462Z,59360.63
2023-01-02T00:24:04.013Z,59360.63
2023-01-02T00:26:30.851Z,59360.63
2023-01-02T00:28:57.273Z,59360.63
2023-01-02T00:31:23.814Z,59360.63
2023-01-02T00:33:50.285Z,59360.63
2023-01-02T00:36:16.720Z,59360.63
2023-01-02T00:38:43.345Z,59360.63
2023-01-02T00:41:10.108Z,59360.63
2023-01-02T00:43:37.040Z,59360.63
2023-01-02T00:46:10.917Z,59360.63
2023-01-02T00:48:38.274Z,59360.63
2023-01-02T00:51:04.907Z,59360.63
2023-01-02T00:53:31.279Z,59360.63
2023-01-02T00:55:57.722Z,59360.63
2023-01-02T00:58:24.119Z,59360.63
2023-01-02T01:00:50.950Z,59360.63
2023-01-02T01:03:17.485Z,59360.63
2023-01-02T01:05:43.955Z,59360.63
2023-01-02T01:08:10.408Z,59360.63
2023-01-02T01:10:37.922Z,59360.63
2023-01-02T01:13:05.084Z,59360.63
2023-01-02T01:15:33.560Z,59360.63
2023-01-02T01:18:00.117Z,59360.63
2023-01-02T01:20:27.072Z,59360.63
2023-01-02T01:22:53.668Z,59360.63
2023-01-02T01:25:21.424Z,59360.63
2023-01-02T01:27:47.903Z,59360.63
2023-01-02T01:30:14.406Z,59360.63
2023-01-02T01:32:40.847Z,59360.63
2023-01-02T01:35:07.675Z,59360.63
2023-01-02T01:37:34.078Z,59360.63
2023-01-02T01:40:00.478Z,59360.63
2023-01-02T01:42:33.445Z,59360.63
2023-01-02T01:45:00.187Z,59360.63
2023-01-02T01:47:38.908Z,59360.63
2023-01-02T01:50:11.383Z,59360.63
2023-01-02T01:52:47.326Z,59360.63
2023-01-02T01:55:28.940Z,59360.63
2023-01-02T01:58:05.897Z,59360.63
2023-01-02T02:00:32.407Z,59360.63
2023-01-02T02:03:06.705Z,59360.63
2023-01-02T02:05:33.700Z,59360.63
2023-01-02T02:08:05.081Z,59360.63
2023-01-02T02:10:31.541Z,59360.63
2023-01-02T02:12:57.938Z,59360.63
2023-01-02T02:15:39.572Z,59360.63
2023-01-02T02:18:41.953Z,59360.63
2023-01-02T02:21:42.743Z,59360.63
2023-01-02T02:24:18.295Z,59360.63
2023-01-02T02:26:51.938Z,59360.63
2023-01-02T02:29:21.560Z,59360.63
2023-01-02T02:32:06.318Z,59360.63
2023-01-02T02:34:43.437Z,59360.63
2023-01-02T02:37:54.780Z,59360.63
2023-01-02T02:40:50.351Z,59360.63
2023-01-02T02:43:30.329Z,59360.63
2023-01-02T02:46:46.858Z,59360.63
2023-01-02T02:49:35.055Z,59360.63
2023-01-02T02:52:12.863Z,59360.63
2023-01-02T02:54:56.594Z,59360.63
2023-01-02T02:57:25.015Z,59360.63
2023-01-02T02:59:52.399Z,59360.63
2023-01-02T03:02:19.444Z,59360.63
2023-01-02T03:04:49.846Z,59360.63
2023-01-02T03:07:49.296Z,59360.63
2023-01-02T03:10:59.716Z,59360.63
2023-01-02T03:13:59.799Z,59360.63
2023-01-02T03:16:28.901Z,59360.63
2023-01-02T03:19:24.878Z,59360.63
2023-01-02T03:22:00.291Z,59360.63
2023-01-02T03:24:27.990Z,59360.63
2023-01-02T03:27:02.775Z,59360.63
2023-01-02T03:29:35.733Z,59360.63
2023-01-02T03:32:07.443Z,59360.63
2023-01-02T03:34:37.062Z,59360.63
2023-01-02T03:37:28.796Z,59360.63
2023-01-02T03:39:59.910Z,59360.63
2023-01-02T03:42:34.841Z,59360.63
2023-01-02T03:45:06.671Z,59360.63
2023-01-02T03:47:44.418Z,59360.63
2023-01-02T03:50:21.733Z,59360.63
2023-01-02T03:52:48.505Z,59360.63
2023-01-02T03:55:15.755Z,59360.63
2023-01-02T03:57:57.866Z,59360.63
2023-01-02T04:00:32.919Z,59360.63
2023-01-02T04:03:09.540Z,59360.63
2023-01-02T04:05:55.832Z,59360.63
2023-01-02T04:08:41.625Z,59360.63
2023-01-02T04:11:09.009Z,59360.63
2023-01-02T04:13:40.659Z,59360.63
2023-01-02T04:16:14.860Z,59360.63
2023-01-02T04:18:47.816Z,59360.63
2023-01-02T04:21:21.147Z,59360.63
2023-01-02T04:24:17.107Z,59360.63
2023-01-02T04:26:53.211Z,59360.63
2023-01-02T04:29:19.673Z,59360.63
2023-01-02T04:31:53.509Z,59360.63
2023-01-02T04:34:22.442Z,59360.63
2023-01-02T04:36:48.875Z,59360.63
2023-01-02T04:39:15.426Z,59360.63
2023-01-02T04:41:42.222Z,59360.63
2023-01-02T04:44:08.590Z,59360.63
2023-01-02T04:46:35.025Z,59360.63
2023-01-02T04:49:01.460Z,59360.63
2023-01-02T04:51:27.950Z,59360.63
2023-01-02T04:53:54.556Z,59360.63
2023-01-02T04:56:21.764Z,59360.63
2023-01-02T04:58:48.608Z,59360.63
2023-01-02T05:01:17.276Z,59360.63
2023-01-02T05:03:46.466Z,59360.63
2023-01-02T05:06:13.404Z,59360.63
2023-01-02T05:08:40.251Z,59360.63
2023-01-02T05:11:08.519Z,59360.63
2023-01-02T05:13:35.361Z,59360.63
2023-01-02T05:16:02.199Z,59360.63
2023-01-02T05:18:29.422Z,59360.63
2023-01-02T05:21:28.230Z,59360.63
2023-01-02T05:23:55.174Z,59360.63
2023-01-02T05:26:21.732Z,59360.63
2023-01-02T05:28:48.211Z,59360.63
2023-01-02T05:31:14.852Z,59360.63
2023-01-02T05:33:41.315Z,59360.63
2023-01-02T05:36:08.653Z,59360.63
2023-01-02T05:38:36.652Z,59360.63
2023-01-02T05:41:05.345Z,59360.63
2023-01-02T05:43:33.245Z,59360.63
2023-01-02T05:46:26.435Z,59360.63
2023-01-02T05:48:52.886Z,59360.63
2023-01-02T05:51:20.504Z,59360.63
2023-01-02T05:53:47.555Z,59360.63
2023-01-02T05:56:18.246Z,59360.63
2023-01-02T05:58:46.785Z,59360.63
2023-01-02T06:01:15.745Z,59360.63
2023-01-02T06:03:50.707Z,59360.63
2023-01-02T06:06:18.818Z,59360.63
2023-01-02T06:08:45.248Z,59360.63
2023-01-02T06:11:11.728Z,59360.63
2023-01-02T06:13:40.014Z,59360.63
2023-01-02T06:16:08.304Z,59360.63
2023-01-02T06:18:36.257Z,59360.63
2023-01-02T06:21:06.094Z,59360.63
2023-01-02T06:23:32.599Z,59360.63
2023-01-02T06:26:06.467Z,59360.63
2023-01-02T06:28:33.172Z,59360.63
2023-01-02T06:31:01.387Z,59360.63
2023-01-02T06:33:31.261Z,59360.63
2023-01-02T06:35:59.684Z,59360.63
2023-01-02T06:38:26.493Z,59360.63
2023-01-02T06:40:56.906Z,59360.63
2023-01-02T06:43:24.721Z,59360.63
2023-01-02T06:45:51.344Z,59360.63
2023-01-02T06:48:18.184Z,59360.63
2023-01-02T06:50:45.374Z,59360.63
2023-01-02T06:53:12.636Z,59360.63
2023-01-02T06:55:39.026Z,59360.63
2023-01-02T06:58:11.190Z,59360.63
2023-01-02T07:00:38.772Z,59360.63
2023-01-02T07:03:05.330Z,59360.63
2023-01-02T07:05:31.746Z,59360.63
2023-01-02T07:07:58.198Z,59360.63
2023-01-02T07:10:24.606Z,59360.63
2023-01-02T07:12:51.011Z,59360.63
2023-01-02T07:15:17.484Z,59360.63
2023-01-02T07:17:43.914Z,59360.63
2023-01-02T07:20:10.798Z,59360.63
2023-01-02T07:22:37.432Z,59360.63
2023-01-02T07:25:04.505Z,59360.63
2023-01-02T07:27:31.707Z,59360.63
2023-01-02T07:29:58.113Z,59360.63
2023-01-02T07:32:27.595Z,59360.63
2023-01-02T07:34:54.403Z,59360.63
2023-01-02T07:37:20.916Z,59360.63
2023-01-02T07:39:47.422Z,59360.63
2023-01-02T07:42:13.966Z,59360.63
2023-01-02T07:44:46.764Z,59360.63
2023-01-02T07:47:13.304Z,59360.63
2023-01-02T07:49:39.675Z,59360.63
2023-01-02T07:52:09.927Z,59360.63
2023-01-02T07:54:36.538Z,59360.63
2023-01-02T07:57:03.492Z,59360.63
2023-01-02T07:59:30.403Z,59360.63
2023-01-02T08:01:56.842Z,59360.63
2023-01-02T08:04:23.408Z,59360.63
2023-01-02T08:06:49.842Z,59360.63
2023-01-02T08:09:16.277Z,59360.63
2023-01-02T08:11:42.866Z,59360.63
2023-01-02T08:14:09.483Z,59360.63
2023-01-02T08:16:36.088Z,59360.63
2023-01-02T08:19:02.502Z,59360.63
2023-01-02T08:21:29.024Z,59360.63
2023-01-02T08:23:55.499Z,59360.63
2023-01-02T08:26:23.274Z,59360.63
2023-01-02T08:28:49.771Z,59360.63
2023-01-02T08:31:19.973Z,59360.63
2023-01-02T08:33:46.968Z,59360.63
2023-01-02T08:36:14.716Z,59360.63
2023-01-02T08:38:41.684Z,59360.63
2023-01-02T08:41:08.593Z,59360.63
2023-01-02T08:43:36.307Z,59360.63
2023-01-02T08:46:07.445Z,59360.63
2023-01-02T08:48:35.325Z,59360.63
2023-01-02T08:51:02.813Z,59360.63
2023-01-02T08:53:29.410Z,59360.63
2023-01-02T08:56:15.696Z,59360.63
2023-01-02T08:58:42.056Z,59360.63
2023-01-02T09:01:08.504Z,59360.63
2023-01-02T09:03:34.947Z,59360.63
2023-01-02T09:06:01.455Z,59360.63
2023-01-02T09:08:27.926Z,59360.63
2023-01-02T09:10:54.365Z,59360.63
2023-01-02T09:13:20.748Z,59360.63
2023-01-02T09:15:49.972Z,59360.63
2023-01-02T09:18:16.808Z,59360.63
2023-01-02T09:20:43.180Z,59360.63
2023-01-02T09:23:12.525Z,59360.63
2023-01-02T09:25:38.990Z,59360.63
2023-01-02T09:28:05.448Z,59360.63
2023-01-02T09:30:32.476Z,59360.63
2023-01-02T09:32:59.032Z,59360.63
2023-01-02T09:35:25.488Z,59360.63
2023-01-02T09:37:52.007Z,59360.63
2023-01-02T09:40:18.549Z,59360.63
2023-01-02T09:42:45.429Z,59360.63
2023-01-02T09:45:13.611Z,59360.63
2023-01-02T09:47:41.543Z,59360.63
2023-01-02T09:50:16.541Z,59360.63
2023-01-02T09:52:53.470Z,59360.63
2023-01-02T09:55:38.232Z,59360.63
2023-01-02T09:58:28.913Z,59360.63
2023-01-02T10:00:56.734Z,59360.63
2023-01-02T10:03:51.158Z,59360.63
2023-01-02T10:06:23.337Z,59360.63
2023-01-02T10:09:13.344Z,59360.63
2023-01-02T10:12:07.414Z,59360.63
2023-01-02T10:14:53.416Z,59360.63
2023-01-02T10:17:20.675Z,59360.63
2023-01-02T10:19:50.289Z,59360.63
2023-01-02T10:22:31.186Z,59360.63
2023-01-02T10:25:08.396Z,59360.63
2023-01-02T10:27:41.595Z,59360.63
2023-01-02T10:30:21.687Z,59360.63
2023-01-02T10:32:56.284Z,59360.63
2023-01-02T10:35:36.615Z,59360.63
2023-01-02T10:38:03.356Z,59360.63
2023-01-02T10:40:31.714Z,59360.63
2023-01-02T10:43:00.332Z,59360.63
2023-01-02T10:45:27.087Z,59360.63
2023-01-02T10:47:53.580Z,59360.63
2023-01-02T10:50:31.561Z,59360.63
2023-01-02T10:53:20.489Z,59360.63
2023-01-02T10:55:47.217Z,59360.63
2023-01-02T10:58:13.511Z,59360.63
2023-01-02T11:00:43.669Z,59360.63
2023-01-02T11:03:22.525Z,59360.63
2023-01-02T11:05:52.287Z,59360.63
2023-01-02T11:08:21.970Z,59360.63
2023-01-02T11:10:50.330Z,59360.63
2023-01-02T11:13:22.017Z,59360.63
2023-01-02T11:15:56.922Z,59360.63
2023-01-02T11:18:28.303Z,59360.63
2023-01-02T11:21:03.905Z,59360.63
2023-01-02T11:23:41.398Z,59360.63
2023-01-02T11:26:19.805Z,59360.63
2023-01-02T11:28:49.502Z,59360.63
2023-01-02T11:31:17.084Z,59360.63
2023-01-02T11:33:44.953Z,59360.63
2023-01-02T11:36:11.372Z,59360.63
2023-01-02T11:38:49.746Z,59360.63
2023-01-02T11:41:48.622Z,59360.63
2023-01-02T11:44:26.345Z,59360.63
2023-01-02T11:46:53.537Z,59360.63
2023-01-02T11:49:26.586Z,59360.63
2023-01-02T11:52:03.196Z,59360.63
2023-01-02T11:54:45.261Z,59360.63
2023-01-02T11:57:38.430Z,59360.63
2023-01-02T12:00:14.207Z,59360.63
2023-01-02T12:02:47.104Z,59360.63
2023-01-02T12:05:32.618Z,59360.63
2023-01-02T12:08:12.181Z,59360.63
2023-01-02T12:11:04.941Z,59360.63
2023-01-02T12:13:53.479Z,59360.63
2023-01-02T12:16:31.095Z,59360.63
2023-01-02T12:19:13.504Z,59360.63
2023-01-02T12:21:52.397Z,59360.63
2023-01-02T12:24:41.574Z,59360.63
2023-01-02T12:27:23.967Z,59360.63
2023-01-02T12:30:04.247Z,59360.63
2023-01-02T12:32:57.407Z,59360.63
2023-01-02T12:35:26.722Z,59360.63
2023-01-02T12:38:03.651Z,59360.63
2023-01-02T12:41:17.878Z,59360.63
2023-01-02T12:44:13.925Z,59360.63
2023-01-02T12:47:05.162Z,59360.63
2023-01-02T12:49:40.538Z,59360.63
2023-01-02T12:52:19.148Z,59360.63
2023-01-02T12:55:04.285Z,59360.63
2023-01-02T12:57:46.111Z,59360.63
2023-01-02T13:00:21.714Z,59360.63
2023-01-02T13:03:20.172Z,59360.63
2023-01-02T13:05:55.340Z,59360.63
2023-01-02T13:08:37.919Z,59360.63
2023-01-02T13:11:05.971Z,59360.63
2023-01-02T13:13:37.042Z,59360.63
2023-01-02T13:16:24.443Z,59360.63
2023-01-02T13:19:49.096Z,59360.63
2023-01-02T13:22:48.877Z,59360.63
2023-01-02T13:25:20.444Z,59360.63
2023-01-02T13:27:49.451Z,59360.63
2023-01-02T13:30:34.088Z,59360.63
2023-01-02T13:33:16.310Z,59360.63
2023-01-02T13:35:42.791Z,59360.63
2023-01-02T13:38:14.784Z,59360.63
2023-01-02T13:40:41.594Z,59360.63
2023-01-02T13:43:15.434Z,59360.63
2023-01-02T13:45:44.282Z,59360.63
2023-01-02T13:48:19.391Z,59360.63
2023-01-02T13:50:46.223Z,59360.63
2023-01-02T13:53:12.618Z,59360.63
2023-01-02T13:55:41.771Z,59360.63
2023-01-02T13:58:20.497Z,59360.63
2023-01-02T14:00:56.390Z,59360.63
2023-01-02T14:03:23.194Z,59360.63
2023-01-02T14:05:58.918Z,59360.63
2023-01-02T14:08:37.403Z,59360.63
2023-01-02T14:11:10.509Z,59360.63
2023-01-02T14:13:53.313Z,59360.63
2023-01-02T14:16:22.736Z,59360.63
2023-01-02T14:19:14.099Z,59360.63
2023-01-02T14:22:03.510Z,59360.63
2023-01-02T14:24:42.055Z,59360.63
2023-01-02T14:27:28.459Z,59360.63
2023-01-02T14:30:08.738Z,59360.63
2023-01-02T14:32:35.101Z,59360.63
2023-01-02T14:35:05.797Z,59360.63
2023-01-02T14:37:36.862Z,59360.63
2023-01-02T14:40:29.785Z,59360.63
2023-01-02T14:43:20.962Z,59360.63
2023-01-02T14:45:51.863Z,59360.63
2023-01-02T14:48:31.243Z,59360.63
2023-01-02T14:51:08.528Z,59360.63
2023-01-02T14:53:52.221Z,59360.63
2023-01-02T14:56:26.692Z,59360.63
2023-01-02T14:58:54.389Z,59360.63
2023-01-02T15:01:43.234Z,59360.63
2023-01-02T15:04:18.899Z,59360.63
2023-01-02T15:06:53.284Z,59360.63
2023-01-02T15:09:34.339Z,59360.63
2023-01-02T15:12:21.517Z,59360.63
2023-01-02T15:14:48.011Z,59360.63
2023-01-02T15:17:20.377Z,59360.63
2023-01-02T15:19:47.937Z,59360.63
2023-01-02T15:22:21.555Z,59360.63
2023-01-02T15:24:50.649Z,59360.63
2023-01-02T15:27:25.256Z,59360.63
2023-01-02T15:29:54.819Z,59360.63
2023-01-02T15:32:25.085Z,59360.63
2023-01-02T15:34:52.004Z,59360.63
2023-01-02T15:37:20.980Z,59360.63
2023-01-02T15:39:50.585Z,59360.63
2023-01-02T15:42:40.385Z,59360.63
2023-01-02T15:45:14.997Z,59360.63
2023-01-02T15:47:51.423Z,59360.63
2023-01-02T15:50:30.631Z,59360.63
2023-01-02T15:53:05.522Z,59360.63
2023-01-02T15:55:37.777Z,59360.63
2023-01-02T15:58:16.271Z,59360.63
2023-01-02T16:00:44.831Z,59360.63
2023-01-02T16:03:13.990Z,59360.63
2023-01-02T16:05:50.081Z,59360.63
2023-01-02T16:08:26.052Z,59360.63
2023-01-02T16:11:02.548Z,59360.63
2023-01-02T16:13:55.575Z,59360.63
2023-01-02T16:16:22.715Z,59360.63
2023-01-02T16:18:58.741Z,59360.63
2023-01-02T16:21:30.849Z,59360.63
2023-01-02T16:23:58.724Z,59360.63
2023-01-02T16:26:37.977Z,59360.63
2023-01-02T16:29:04.645Z,59360.63
2023-01-02T16:31:50.261Z,59360.63
2023-01-02T16:34:27.006Z,59360.63
2023-01-02T16:37:15.179Z,59360.63
2023-01-02T16:39:48.004Z,59360.63
2023-01-02T16:42:33.223Z,59360.63
2023-01-02T16:44:59.608Z,59360.63
2023-01-02T16:47:34.046Z,59360.63
2023-01-02T16:50:00.711Z,59360.63
2023-01-02T16:52:27.175Z,59360.63
2023-01-02T16:54:54.462Z,59360.63
2023-01-02T16:57:23.283Z,59360.63
2023-01-02T16:59:49.781Z,59360.63
2023-01-02T17:02:16.252Z,59360.63
2023-01-02T17:04:42.793Z,59360.63
2023-01-02T17:07:10.667Z,59360.63
2023-01-02T17:09:37.115Z,59360.63
2023-01-02T17:12:04.177Z,59360.63
2023-01-02T17:14:32.752Z,59360.63
2023-01-02T17:16:59.724Z,59360.63
2023-01-02T17:19:26.401Z,59360.63
2023-01-02T17:21:52.839Z,59360.63
2023-01-02T17:24:19.241Z,59360.63
2023-01-02T17:26:47.046Z,59360.63
2023-01-02T17:29:13.827Z,59360.63
2023-01-02T17:31:40.213Z,59360.63
2023-01-02T17:34:06.676Z,59360.63
2023-01-02T17:36:33.865Z,59360.63
2023-01-02T17:39:02.698Z,59360.63
2023-01-02T17:41:29.150Z,59360.63
2023-01-02T17:44:01.837Z,59360.63
2023-01-02T17:47:04.388Z,59360.63
2023-01-02T17:49:17.403Z,59360.63
2023-01-02T17:51:43.893Z,59360.63
2023-01-02T17:54:10.317Z,59360.63
2023-01-02T17:56:36.695Z,101377.22
2023-01-02T17:59:03.528Z,101988.44
2023-01-02T18:01:30.084Z,102000.13
2023-01-02T18:03:56.894Z,59360.63
2023-01-02T18:06:23.280Z,59360.63
2023-01-02T18:08:51.133Z,59360.63
2023-01-02T18:11:18.099Z,59360.63
2023-01-02T18:13:55.589Z,59360.63
2023-01-02T18:16:24.253Z,59360.63
2023-01-02T18:18:51.169Z,59360.63
2023-01-02T18:21:23.832Z,59360.63
2023-01-02T18:23:54.649Z,59360.63
2023-01-02T18:26:21.521Z,59360.63
2023-01-02T18:28:51.509Z,59360.63
2023-01-02T18:31:20.685Z,59360.63
2023-01-02T18:33:47.297Z,59360.63
2023-01-02T18:36:22.841Z,59360.63
2023-01-02T18:38:50.918Z,59360.63
2023-01-02T18:41:28.664Z,59360.63
2023-01-02T18:44:15.138Z,59360.63
2023-01-02T18:47:04.647Z,59360.63
2023-01-02T18:49:32.178Z,59360.63
2023-01-02T18:52:10.781Z,59360.63
2023-01-02T18:54:41.249Z,59360.63
2023-01-02T18:57:15.639Z,59360.63
2023-01-02T18:59:49.872Z,59360.63
2023-01-02T19:02:30.125Z,59360.63
2023-01-02T19:04:57.374Z,59360.63
2023-01-02T19:07:34.933Z,59360.63
2023-01-02T19:10:07.339Z,59360.63
2023-01-02T19:13:06.475Z,59360.63
2023-01-02T19:15:40.815Z,59360.63
2023-01-02T19:18:13.446Z,59360.63
2023-01-02T19:20:43.725Z,59360.63
2023-01-02T19:23:30.031Z,59360.63
2023-01-02T19:26:07.794Z,59360.63
2023-01-02T19:28:35.931Z,59360.63
2023-01-02T19:31:13.830Z,59360.63
2023-01-02T19:33:51.412Z,59360.63
2023-01-02T19:36:22.804Z,59360.63
2023-01-02T19:38:50.620Z,59360.63
2023-01-02T19:41:37.002Z,59360.63
2023-01-02T19:44:03.534Z,59360.63
2023-01-02T19:46:30.098Z,59360.63
2023-01-02T19:48:56.490Z,59360.63
2023-01-02T19:51:22.831Z,59360.63
2023-01-02T19:53:49.184Z,59360.63
2023-01-02T19:56:15.596Z,59360.63
2023-01-02T19:58:42.041Z,59360.63
2023-01-02T20:01:08.438Z,59360.63
2023-01-02T20:03:34.860Z,59360.63
2023-01-02T20:06:02.041Z,59360.63
2023-01-02T20:08:28.395Z,59360.63
2023-01-02T20:10:54.784Z,59360.63
2023-01-02T20:13:21.405Z,59360.63
2023-01-02T20:15:47.838Z,59360.63
2023-01-02T20:18:17.941Z,59360.63
2023-01-02T20:20:44.375Z,59360.63
2023-01-02T20:23:10.792Z,59360.63
2023-01-02T20:25:37.236Z,59360.63
2023-01-02T20:28:04.126Z,59360.63
2023-01-02T20:30:30.621Z,59360.63
2023-01-02T20:32:57.018Z,59360.63
2023-01-02T20:35:23.529Z,59360.63
2023-01-02T20:37:49.930Z,59360.63
2023-01-02T20:40:16.398Z,59360.63
2023-01-02T20:42:43.056Z,59360.63
2023-01-02T20:45:09.977Z,59360.63
2023-01-02T20:47:37.084Z,59360.63
2023-01-02T20:50:04.268Z,59360.63
2023-01-02T20:52:30.768Z,59360.63
2023-01-02T20:54:57.235Z,59360.63
2023-01-02T20:57:24.000Z,59360.63
2023-01-02T20:59:50.718Z,59360.63
2023-01-02T21:02:17.352Z,59360.63
2023-01-02T21:04:46.187Z,59360.63
2023-01-02T21:07:12.684Z,59360.63
2023-01-02T21:09:39.065Z,59360.63
2023-01-02T21:12:25.568Z,59360.63
2023-01-02T21:14:51.942Z,59360.63
2023-01-02T21:17:18.465Z,59360.63
2023-01-02T21:19:44.810Z,59360.63
2023-01-02T21:22:11.196Z,59360.63
2023-01-02T21:24:37.602Z,59360.63
2023-01-02T21:27:09.252Z,59360.63
2023-01-02T21:29:39.144Z,59360.63
2023-01-02T21:32:05.873Z,59360.63
2023-01-02T21:34:32.306Z,59360.63
2023-01-02T21:36:59.888Z,59360.63
2023-01-02T21:39:26.527Z,59360.63
2023-01-02T21:42:25.351Z,59360.63
2023-01-02T21:44:51.756Z,59360.63
2023-01-02T21:47:18.296Z,59360.63
2023-01-02T21:49:44.963Z,59360.63
2023-01-02T21:52:11.355Z,59360.63
2023-01-02T21:54:37.750Z,102300.75
2023-01-02T21:57:04.249Z,102298.16
2023-01-02T21:59:30.680Z,102301.63
2023-01-02T22:01:59.737Z,102294.63
2023-01-02T22:04:26.234Z,102297.28
2023-01-02T22:09:39.058Z,102307.22
2023-01-02T22:12:07.039Z,102316.19
2023-01-02T22:14:36.361Z,102305.50
2023-01-02T22:17:08.546Z,102310.81
2023-01-02T22:19:35.865Z,102320.75
2023-01-02T22:22:03.479Z,102335.84
2023-01-02T22:24:30.245Z,102333.19
2023-01-02T22:27:00.336Z,102332.31
2023-01-02T22:29:51.344Z,102341.25
2023-01-02T22:32:15.497Z,102339.53
2023-01-02T22:34:44.086Z,102343.09
2023-01-02T22:37:15.548Z,102336.06
2023-01-02T22:39:45.324Z,102346.72
2023-01-02T22:42:59.605Z,102354.72
2023-01-02T22:45:27.584Z,102353.16
2023-01-02T22:48:00.571Z,102353.09
2023-01-02T22:50:31.731Z,102358.41
2023-01-02T22:52:58.857Z,102355.75
2023-01-02T22:55:25.395Z,102358.41
2023-01-02T22:57:52.390Z,102361.16
2023-01-02T23:00:24.155Z,102366.47
2023-01-02T23:02:50.873Z,102374.53
2023-01-02T23:05:20.446Z,102365.66
2023-01-02T23:07:49.487Z,102374.53
2023-01-02T23:10:16.382Z,102384.38
2023-01-02T23:12:42.816Z,102364.00
2023-01-02T23:15:12.419Z,102380.03
2023-01-02T23:17:57.721Z,102379.22
2023-01-02T23:20:25.282Z,102380.09
2023-01-02T23:22:51.660Z,102383.69
2023-01-02T23:25:18.221Z,102389.09
2023-01-02T23:27:44.721Z,102394.38
2023-01-02T23:30:11.747Z,102389.03
2023-01-02T23:32:38.192Z,102382.84
2023-01-02T23:35:05.496Z,102390.84
2023-01-02T23:37:31.904Z,102381.25
2023-01-02T23:39:58.307Z,102392.78
2023-01-02T23:42:24.725Z,102393.66
2023-01-02T23:44:51.181Z,102392.88
2023-01-02T23:47:19.476Z,102393.81
2023-01-02T23:49:46.085Z,102400.91
2023-01-02T23:52:12.632Z,102410.72
2023-01-02T23:54:39.409Z,102399.16
2023-01-02T23:57:05.910Z,102400.19
2023-01-02T23:59:32.419Z,102407.31
